Time;durP1;ratioP1;P1;durP2;ratioP2;P2;SDS_P1;SDS_P2;PMS_P1;PMS_P2;Temp;Humidity;BMP_temperature;BMP_pressure;BME280_temperature;BME280_humidity;BME280_pressure;Samples;Min_cycle;Max_cycle;Signal;HPM_P1;HPM_P2
2022/04/19 00:00:48;;;;;;;6.73;5.93;;;10.10;96.00;;;;;;5030629;28;20631;-33
2022/04/19 00:03:17;;;;;;;8.87;6.93;;;10.30;96.50;;;;;;5030960;28;20424;-34
2022/04/19 00:05:44;;;;;;;7.10;6.40;;;10.00;96.70;;;;;;5030664;28;20425;-38
2022/04/19 00:08:11;;;;;;;7.10;6.50;;;10.00;96.80;;;;;;5031237;28;20425;-37
2022/04/19 00:10:39;;;;;;;8.27;7.37;;;10.10;96.90;;;;;;5026496;28;20442;-35
2022/04/19 00:13:06;;;;;;;8.20;7.40;;;10.10;97.30;;;;;;5029289;28;20429;-37
2022/04/19 00:15:32;;;;;;;8.43;7.20;;;10.20;97.30;;;;;;5031319;28;20440;-38
2022/04/19 00:18:03;;;;;;;7.93;6.93;;;10.10;97.20;;;;;;5030194;28;20429;-36
2022/04/19 00:20:30;;;;;;;7.97;7.17;;;10.20;97.20;;;;;;5030432;28;20492;-36
2022/04/19 00:22:57;;;;;;;7.70;6.50;;;9.90;97.70;;;;;;5031348;28;20433;-35
2022/04/19 00:25:23;;;;;;;8.20;6.60;;;9.80;98.20;;;;;;5036757;28;20436;-36
2022/04/19 00:27:50;;;;;;;8.03;7.20;;;9.90;99.00;;;;;;5023669;28;20989;-37
2022/04/19 00:30:16;;;;;;;7.50;6.80;;;9.80;99.40;;;;;;5030606;28;20437;-37
2022/04/19 00:32:41;;;;;;;8.10;7.30;;;9.80;99.90;;;;;;5031151;28;20827;-36
2022/04/19 00:35:10;;;;;;;7.33;6.57;;;9.50;99.90;;;;;;5030618;28;20421;-34
2022/04/19 00:37:37;;;;;;;9.00;6.53;;;9.40;99.90;;;;;;5031173;28;20578;-34
2022/04/19 00:40:04;;;;;;;7.60;6.50;;;9.20;99.90;;;;;;5029088;28;20434;-32
2022/04/19 00:42:30;;;;;;;9.50;6.40;;;9.30;99.90;;;;;;5018268;28;20850;-36
2022/04/19 00:45:02;;;;;;;7.70;6.63;;;9.40;99.90;;;;;;5030863;28;20431;-38
2022/04/19 00:47:32;;;;;;;7.20;5.67;;;9.50;99.90;;;;;;5030569;28;20512;-37
2022/04/19 00:50:01;;;;;;;7.07;6.37;;;9.20;99.90;;;;;;5030374;28;20487;-38
2022/04/19 00:52:28;;;;;;;6.70;6.10;;;9.40;99.90;;;;;;5030652;28;20430;-37
2022/04/19 00:54:54;;;;;;;7.20;6.33;;;9.40;99.90;;;;;;5030720;28;20494;-35
2022/04/19 00:57:22;;;;;;;6.07;5.43;;;9.50;99.90;;;;;;5022438;28;20457;-35
2022/04/19 00:59:49;;;;;;;9.60;6.63;;;9.30;99.90;;;;;;5030136;28;20433;-35
2022/04/19 01:02:14;;;;;;;7.10;6.47;;;9.20;99.90;;;;;;5016767;28;20477;-35
2022/04/19 01:04:40;;;;;;;8.23;6.40;;;9.10;99.90;;;;;;5029592;28;20763;-35
2022/04/19 01:07:07;;;;;;;8.00;6.40;;;8.90;99.90;;;;;;5030396;28;20900;-38
2022/04/19 01:09:32;;;;;;;7.07;6.07;;;8.90;99.90;;;;;;5030157;28;20186;-38
2022/04/19 01:14:45;;;;;;;6.10;5.50;;;8.80;99.90;;;;;;5029911;28;20255;-38
2022/04/19 01:17:11;;;;;;;6.93;6.23;;;8.70;99.90;;;;;;5030125;28;20436;-35
2022/04/19 01:19:38;;;;;;;7.10;6.40;;;8.70;99.90;;;;;;5029739;28;20437;-36
2022/04/19 01:22:05;;;;;;;7.60;6.13;;;8.40;99.90;;;;;;5030054;28;20475;-36
2022/04/19 01:24:31;;;;;;;7.87;6.03;;;8.30;99.90;;;;;;5033184;28;20434;-37
2022/04/19 01:26:57;;;;;;;7.33;5.73;;;8.50;99.90;;;;;;5028784;28;20532;-41
2022/04/19 01:29:24;;;;;;;7.97;5.77;;;8.30;99.90;;;;;;5029421;28;20182;-41
2022/04/19 01:31:51;;;;;;;7.20;6.40;;;8.30;99.90;;;;;;5029269;28;20429;-41
2022/04/19 01:34:21;;;;;;;6.50;5.77;;;8.60;99.90;;;;;;5029682;28;20428;-41
2022/04/19 01:36:46;;;;;;;7.43;5.20;;;8.40;99.90;;;;;;5029947;28;20429;-41
2022/04/19 01:39:12;;;;;;;6.17;5.50;;;8.60;99.90;;;;;;5028501;28;20493;-41
2022/04/19 01:41:39;;;;;;;6.70;6.03;;;8.70;99.90;;;;;;5021523;28;20661;-41
2022/04/19 01:44:07;;;;;;;7.47;6.67;;;8.70;99.90;;;;;;5026582;28;20425;-41
2022/04/19 01:46:33;;;;;;;6.70;6.03;;;8.70;99.90;;;;;;5029829;28;20432;-41
2022/04/19 01:49:02;;;;;;;7.30;6.17;;;8.50;99.90;;;;;;5029791;28;20444;-41
2022/04/19 01:51:27;;;;;;;8.70;5.90;;;8.40;99.90;;;;;;5028882;28;20425;-41
2022/04/19 01:53:55;;;;;;;7.10;6.40;;;8.50;99.90;;;;;;5029806;28;20437;-41
2022/04/19 01:56:21;;;;;;;9.33;6.60;;;8.20;99.90;;;;;;5024473;28;20191;-41
2022/04/19 01:58:48;;;;;;;7.27;6.07;;;8.20;99.90;;;;;;5026863;28;20456;-41
2022/04/19 02:01:14;;;;;;;6.87;5.73;;;8.30;99.90;;;;;;5020883;28;20233;-41
2022/04/19 02:03:40;;;;;;;7.00;5.80;;;8.10;99.90;;;;;;5029641;28;20487;-41
2022/04/19 02:06:11;;;;;;;6.47;5.87;;;8.30;99.90;;;;;;5028528;28;20421;-41
2022/04/19 02:08:38;;;;;;;7.60;6.57;;;8.10;99.90;;;;;;5029732;28;20425;-41
2022/04/19 02:11:04;;;;;;;7.73;6.10;;;8.10;99.90;;;;;;5026634;28;20920;-41
2022/04/19 02:13:31;;;;;;;7.57;6.20;;;7.90;99.90;;;;;;5018036;28;20421;-41
2022/04/19 02:15:58;;;;;;;8.77;7.07;;;7.80;99.90;;;;;;5029261;28;20855;-41
2022/04/19 02:18:25;;;;;;;8.50;7.40;;;7.90;99.90;;;;;;5029173;28;20457;-41
2022/04/19 02:20:51;;;;;;;7.40;6.47;;;7.90;99.90;;;;;;5028526;28;20982;-41
2022/04/19 02:23:16;;;;;;;9.60;6.73;;;7.80;99.90;;;;;;5027308;28;20421;-41
2022/04/19 02:25:42;;;;;;;9.23;5.90;;;7.70;99.90;;;;;;5041352;28;20392;-41
2022/04/19 02:28:10;;;;;;;8.20;7.03;;;8.10;99.90;;;;;;5020731;28;20190;-41
2022/04/19 02:30:36;;;;;;;14.90;6.70;;;7.80;99.90;;;;;;5028333;28;20188;-40
2022/04/19 02:33:02;;;;;;;7.43;6.50;;;7.80;99.90;;;;;;5028935;28;20487;-41
2022/04/19 02:35:31;;;;;;;8.13;6.47;;;8.10;99.90;;;;;;5029021;28;20433;-41
2022/04/19 02:37:58;;;;;;;11.40;7.90;;;8.10;99.90;;;;;;5028909;28;20431;-41
2022/04/19 02:40:25;;;;;;;10.67;7.33;;;8.20;99.90;;;;;;5029790;28;20605;-41
2022/04/19 02:42:54;;;;;;;9.90;7.80;;;8.20;99.90;;;;;;5020932;28;20430;-41
2022/04/19 02:45:21;;;;;;;10.60;8.57;;;8.10;99.90;;;;;;5032996;28;20789;-41
2022/04/19 02:48:19;;;;;;;8.87;7.63;;;8.20;99.90;;;;;;5032994;28;20473;-41
2022/04/19 02:50:45;;;;;;;9.73;7.30;;;8.50;99.90;;;;;;5026190;28;20451;-41
2022/04/19 02:53:11;;;;;;;11.37;8.07;;;8.80;99.90;;;;;;5032765;28;20461;-40
2022/04/19 02:55:37;;;;;;;10.97;8.07;;;8.60;99.90;;;;;;5033027;28;20417;-41
2022/04/19 02:58:03;;;;;;;8.30;6.97;;;8.70;99.90;;;;;;5022982;28;20463;-41
2022/04/19 03:00:29;;;;;;;8.00;7.00;;;8.80;99.90;;;;;;5031853;28;20210;-41
2022/04/19 03:02:55;;;;;;;8.63;7.73;;;8.80;99.90;;;;;;5032829;28;20433;-40
2022/04/19 03:05:21;;;;;;;11.23;8.03;;;8.70;99.90;;;;;;5031648;28;20256;-41
2022/04/19 03:07:47;;;;;;;9.23;7.40;;;8.70;99.90;;;;;;5032917;28;21131;-41
2022/04/19 03:10:15;;;;;;;10.50;9.00;;;8.60;99.90;;;;;;5031826;28;20417;-41
2022/04/19 03:12:42;;;;;;;10.50;8.80;;;8.50;99.90;;;;;;5020464;28;20988;-41
2022/04/19 03:15:08;;;;;;;10.00;8.60;;;8.50;99.90;;;;;;5031335;28;20803;-41
2022/04/19 03:17:34;;;;;;;11.33;9.43;;;8.50;99.90;;;;;;5032404;28;20428;-41
2022/04/19 03:20:01;;;;;;;12.63;10.00;;;8.40;99.90;;;;;;5031852;28;20439;-41
2022/04/19 03:27:41;;;;;;;12.10;10.47;;;8.50;99.90;;;;;;5032283;28;20926;-41
2022/04/19 03:27:56;;;;;;;15.33;10.63;;;8.50;99.90;;;;;;5027356;28;20507;-40
2022/04/19 03:30:22;;;;;;;13.30;10.13;;;8.70;99.90;;;;;;5031336;28;20432;-41
2022/04/19 03:32:52;;;;;;;11.80;9.07;;;8.70;99.90;;;;;;5032432;28;20432;-41
2022/04/19 03:35:19;;;;;;;11.57;9.50;;;8.70;99.90;;;;;;5032340;28;20424;-41
2022/04/19 03:37:45;;;;;;;11.03;9.47;;;8.80;99.90;;;;;;5031958;28;20429;-40
2022/04/19 03:40:11;;;;;;;11.20;8.30;;;8.80;99.90;;;;;;5031433;28;20789;-41
2022/04/19 03:42:37;;;;;;;13.17;8.90;;;8.80;99.90;;;;;;5028857;28;20194;-41
2022/04/19 03:45:03;;;;;;;11.37;9.17;;;8.40;99.90;;;;;;5030665;28;20441;-40
2022/04/19 03:47:29;;;;;;;12.27;9.30;;;8.30;99.90;;;;;;5031753;28;20448;-41
2022/04/19 03:49:54;;;;;;;11.90;10.43;;;8.30;99.90;;;;;;5031419;28;21089;-41
2022/04/19 03:52:20;;;;;;;10.87;8.53;;;8.00;99.90;;;;;;5031580;28;20198;-41
2022/04/19 03:54:46;;;;;;;11.03;9.33;;;8.10;99.90;;;;;;5031806;28;20194;-41
2022/04/19 03:57:11;;;;;;;12.00;9.37;;;8.10;99.90;;;;;;5026217;28;20290;-41
2022/04/19 03:59:38;;;;;;;11.40;9.13;;;7.90;99.90;;;;;;5026762;28;20202;-41
2022/04/19 04:02:08;;;;;;;11.13;8.33;;;7.90;99.90;;;;;;5031217;28;20226;-41
2022/04/19 04:04:35;;;;;;;10.07;8.93;;;7.80;99.90;;;;;;5030763;28;20433;-41
2022/04/19 04:07:06;;;;;;;13.53;9.70;;;7.80;99.90;;;;;;5031537;28;20457;-41
2022/04/19 04:09:32;;;;;;;11.10;9.37;;;7.70;99.90;;;;;;5031457;28;20453;-41
2022/04/19 04:12:03;;;;;;;10.23;8.50;;;7.70;99.90;;;;;;5028083;28;20429;-41
2022/04/19 04:14:29;;;;;;;9.90;8.90;;;7.50;99.90;;;;;;5025144;28;20769;-41
2022/04/19 04:16:55;;;;;;;20.20;9.00;;;7.60;99.90;;;;;;5031461;28;20829;-41
2022/04/19 04:19:21;;;;;;;10.07;8.53;;;7.50;99.90;;;;;;5031190;28;20445;-41
2022/04/19 04:21:47;;;;;;;10.13;8.40;;;7.50;99.90;;;;;;5030540;28;20804;-40
2022/04/19 04:24:12;;;;;;;11.90;8.23;;;7.50;99.90;;;;;;5031138;28;20186;-41
2022/04/19 04:26:38;;;;;;;11.80;8.40;;;7.50;99.90;;;;;;5050939;28;20197;-41
2022/04/19 04:29:04;;;;;;;8.63;7.73;;;7.20;99.90;;;;;;5018658;28;20191;-41
2022/04/19 04:31:29;;;;;;;10.70;8.60;;;7.20;99.90;;;;;;5030364;28;20190;-41
2022/04/19 04:33:55;;;;;;;8.10;7.30;;;7.30;99.90;;;;;;5031238;28;20344;-41
2022/04/19 04:36:21;;;;;;;9.73;7.77;;;7.30;99.90;;;;;;5031054;28;20296;-41
2022/04/19 04:38:47;;;;;;;10.53;8.87;;;7.50;99.90;;;;;;5031045;28;20433;-41
2022/04/19 04:41:12;;;;;;;11.00;8.20;;;7.40;99.90;;;;;;5030222;28;20331;-41
2022/04/19 04:43:39;;;;;;;8.33;7.40;;;7.40;99.90;;;;;;5017815;28;20191;-40
2022/04/19 04:51:35;;;;;;;9.50;7.10;;;7.00;99.90;;;;;;5029556;28;20437;-40
2022/04/19 04:54:01;;;;;;;8.70;7.20;;;6.90;99.90;;;;;;5030929;28;20425;-41
2022/04/19 04:56:26;;;;;;;10.83;8.03;;;6.80;99.90;;;;;;5030640;28;20195;-41
2022/04/19 04:58:52;;;;;;;8.77;7.87;;;6.80;99.90;;;;;;5020045;28;20569;-41
2022/04/19 05:01:18;;;;;;;9.60;7.30;;;6.60;99.90;;;;;;5029571;28;20618;-41
2022/04/19 05:03:44;;;;;;;8.17;7.23;;;6.80;99.90;;;;;;5029109;28;20308;-40
2022/04/19 05:06:10;;;;;;;8.20;7.13;;;6.90;99.90;;;;;;5029867;28;20198;-41
2022/04/19 05:08:35;;;;;;;11.77;8.80;;;6.70;99.90;;;;;;5030693;28;20198;-41
2022/04/19 05:11:01;;;;;;;10.20;7.90;;;6.70;99.90;;;;;;5029721;28;20650;-41
2022/04/19 05:13:27;;;;;;;11.17;8.60;;;6.70;99.90;;;;;;5020307;28;20684;-41
2022/04/19 05:15:52;;;;;;;11.43;9.03;;;6.80;99.90;;;;;;5024950;28;20259;-41
2022/04/19 05:18:18;;;;;;;8.60;7.53;;;6.90;99.90;;;;;;5025016;28;20194;-41
2022/04/19 05:20:44;;;;;;;8.70;7.80;;;6.90;99.90;;;;;;5031675;28;20217;-41
2022/04/19 05:23:10;;;;;;;11.80;8.63;;;7.00;99.90;;;;;;5030207;28;20280;-41
2022/04/19 05:25:35;;;;;;;8.87;7.90;;;7.20;99.90;;;;;;5040182;28;20514;-40
2022/04/19 05:28:01;;;;;;;10.97;8.30;;;7.20;99.90;;;;;;5036198;28;20239;-41
2022/04/19 05:30:27;;;;;;;13.27;8.70;;;7.30;99.90;;;;;;5029376;28;20190;-41
2022/04/19 05:32:53;;;;;;;9.40;7.67;;;7.40;99.90;;;;;;5031737;28;20629;-43
2022/04/19 05:35:19;;;;;;;9.10;8.20;;;7.40;99.90;;;;;;5029910;28;20198;-44
2022/04/19 05:37:46;;;;;;;9.53;7.90;;;7.50;99.90;;;;;;5029708;28;20475;-43
2022/04/19 05:40:12;;;;;;;10.20;8.00;;;7.80;99.90;;;;;;5029228;28;20298;-44
2022/04/19 05:42:37;;;;;;;7.67;6.67;;;8.00;99.90;;;;;;5025582;28;20434;-43
2022/04/19 05:45:04;;;;;;;10.07;7.80;;;8.20;99.90;;;;;;5024338;28;20908;-43
2022/04/19 05:47:31;;;;;;;11.20;8.03;;;8.30;99.90;;;;;;5029531;28;20278;-43
2022/04/19 05:49:57;;;;;;;9.70;7.30;;;8.90;99.90;;;;;;5029282;28;20909;-43
2022/04/19 05:52:23;;;;;;;10.13;7.00;;;9.20;99.90;;;;;;5029596;28;20429;-43
2022/04/19 05:54:49;;;;;;;11.20;7.67;;;9.30;99.90;;;;;;5028213;28;20200;-43
2022/04/19 05:57:15;;;;;;;9.27;7.90;;;9.50;99.90;;;;;;5026785;28;20232;-43
2022/04/19 05:59:40;;;;;;;8.97;7.43;;;10.00;99.90;;;;;;5019892;28;20548;-43
2022/04/19 06:04:54;;;;;;;9.80;7.60;;;10.40;99.90;;;;;;5024612;28;20195;-43
2022/04/19 06:07:23;;;;;;;9.17;7.37;;;10.70;99.90;;;;;;5028973;28;20435;-43
2022/04/19 06:09:49;;;;;;;10.93;8.90;;;11.00;99.20;;;;;;5029274;28;20441;-43
2022/04/19 06:12:15;;;;;;;11.77;8.60;;;11.20;98.50;;;;;;5030732;28;21194;-43
2022/04/19 06:14:41;;;;;;;12.37;9.30;;;11.40;98.20;;;;;;5019681;28;20852;-43
2022/04/19 06:17:07;;;;;;;9.77;8.37;;;11.70;97.80;;;;;;5028831;28;20305;-43
2022/04/19 06:19:33;;;;;;;8.93;8.03;;;11.70;97.10;;;;;;5028362;28;20437;-43
2022/04/19 06:21:59;;;;;;;10.10;8.33;;;11.90;97.00;;;;;;5028171;28;20464;-43
2022/04/19 06:24:28;;;;;;;10.20;9.07;;;12.00;96.50;;;;;;5030190;28;20194;-43
2022/04/19 06:26:55;;;;;;;11.43;9.20;;;12.10;96.20;;;;;;5048896;28;20189;-43
2022/04/19 06:29:21;;;;;;;12.30;10.07;;;12.30;95.90;;;;;;5024124;28;20441;-43
2022/04/19 06:31:46;;;;;;;13.20;10.47;;;12.40;95.40;;;;;;5028243;28;20512;-43
2022/04/19 06:34:12;;;;;;;17.80;10.77;;;12.50;95.60;;;;;;5029120;28;20443;-43
2022/04/19 06:36:38;;;;;;;15.20;10.53;;;12.60;94.90;;;;;;5029029;28;20594;-43
2022/04/19 06:39:04;;;;;;;12.20;10.30;;;12.70;94.60;;;;;;5027852;28;20201;-43
2022/04/19 06:41:30;;;;;;;12.57;9.23;;;12.80;94.60;;;;;;5028266;28;20475;-43
2022/04/19 06:43:59;;;;;;;11.30;9.10;;;12.90;93.80;;;;;;5019105;28;20457;-43
2022/04/19 06:46:25;;;;;;;14.03;10.77;;;13.00;93.70;;;;;;5028687;28;20457;-43
2022/04/19 06:48:54;;;;;;;13.40;10.80;;;12.90;93.80;;;;;;5028711;28;20429;-43
2022/04/19 06:51:21;;;;;;;13.10;11.27;;;13.00;93.80;;;;;;5028264;28;20482;-43
2022/04/19 06:53:46;;;;;;;13.43;10.93;;;13.00;93.70;;;;;;5029349;28;20527;-43
2022/04/19 06:56:12;;;;;;;11.73;10.10;;;13.10;93.60;;;;;;5028483;28;20439;-43
2022/04/19 06:58:41;;;;;;;15.53;10.53;;;13.10;93.60;;;;;;5022128;28;20195;-43
2022/04/19 07:01:07;;;;;;;19.00;9.80;;;13.20;93.50;;;;;;5026694;28;20571;-43
2022/04/19 07:03:35;;;;;;;15.27;10.23;;;13.30;93.20;;;;;;5029674;28;20416;-43
2022/04/19 07:06:02;;;;;;;12.67;10.40;;;13.40;92.70;;;;;;5028141;28;20529;-41
2022/04/19 07:08:28;;;;;;;13.43;10.30;;;13.50;92.60;;;;;;5028759;28;20792;-43
2022/04/19 07:10:55;;;;;;;13.33;9.83;;;13.50;92.70;;;;;;5027951;28;20429;-43
2022/04/19 07:13:21;;;;;;;17.30;10.93;;;13.60;92.70;;;;;;5024276;28;20191;-43
2022/04/19 07:15:47;;;;;;;12.33;9.83;;;13.70;92.20;;;;;;5024929;28;20857;-43
2022/04/19 07:18:14;;;;;;;13.03;10.50;;;13.60;92.10;;;;;;5028428;28;20891;-43
2022/04/19 07:28:58;;;;;;;9.60;8.60;;;13.60;92.20;;;;;;5022216;28;20450;-43
2022/04/19 07:31:24;;;;;;;11.47;9.10;;;13.60;91.50;;;;;;5030625;28;20908;-43
2022/04/19 07:33:50;;;;;;;10.30;8.50;;;13.50;91.20;;;;;;5032173;28;20194;-43
2022/04/19 07:36:16;;;;;;;12.73;9.57;;;13.50;91.50;;;;;;5030579;28;20439;-43
2022/04/19 07:38:42;;;;;;;12.20;9.20;;;13.50;91.20;;;;;;5032253;28;20186;-43
2022/04/19 07:41:08;;;;;;;10.60;8.70;;;13.50;91.10;;;;;;5036660;28;20517;-43
2022/04/19 07:43:34;;;;;;;13.13;8.60;;;13.50;91.10;;;;;;5040855;28;20262;-43
2022/04/19 07:46:01;;;;;;;10.47;9.13;;;13.60;90.80;;;;;;5028532;28;20524;-43
2022/04/19 07:48:27;;;;;;;10.20;7.83;;;13.60;90.60;;;;;;5031722;28;20194;-43
2022/04/19 07:50:52;;;;;;;10.90;8.83;;;13.70;90.80;;;;;;5031342;28;20445;-43
2022/04/19 07:53:18;;;;;;;10.33;8.00;;;13.80;90.00;;;;;;5035027;28;20863;-43
2022/04/19 07:55:44;;;;;;;10.30;8.30;;;13.80;88.60;;;;;;5030602;28;20203;-43
2022/04/19 07:58:10;;;;;;;10.63;8.20;;;13.90;87.70;;;;;;5030674;28;20236;-43
2022/04/19 08:00:36;;;;;;;11.07;7.83;;;13.90;88.80;;;;;;5020528;28;20577;-43
2022/04/19 08:03:02;;;;;;;10.73;8.80;;;13.90;90.10;;;;;;5031552;28;20187;-43
2022/04/19 08:05:28;;;;;;;10.17;8.07;;;13.80;90.00;;;;;;5030300;28;20437;-43
2022/04/19 08:07:53;;;;;;;10.40;8.50;;;13.90;89.70;;;;;;5031492;28;20225;-43
2022/04/19 08:10:20;;;;;;;10.83;9.20;;;13.90;89.00;;;;;;5031207;28;20186;-43
2022/04/19 08:12:46;;;;;;;9.70;8.10;;;13.80;88.90;;;;;;5031594;28;20225;-43
2022/04/19 08:15:13;;;;;;;9.70;8.53;;;13.70;88.20;;;;;;5023318;28;20931;-43
2022/04/19 08:17:39;;;;;;;11.13;8.73;;;13.60;89.10;;;;;;5031014;28;20512;-43
2022/04/19 08:20:05;;;;;;;8.63;7.83;;;13.60;90.00;;;;;;5030765;28;20504;-43
2022/04/19 08:22:32;;;;;;;8.83;7.93;;;13.70;89.10;;;;;;5031019;28;20471;-43
2022/04/19 08:24:57;;;;;;;10.33;8.20;;;13.70;90.20;;;;;;5037065;28;20435;-43
2022/04/19 08:27:23;;;;;;;10.83;8.70;;;13.80;87.90;;;;;;5051197;28;20926;-43
2022/04/19 08:29:49;;;;;;;9.40;8.27;;;13.80;87.50;;;;;;5028265;28;20171;-43
2022/04/19 08:32:15;;;;;;;9.17;8.20;;;13.90;87.10;;;;;;5030863;28;20444;-43
2022/04/19 08:34:41;;;;;;;8.30;7.40;;;13.90;86.30;;;;;;5030932;28;20194;-43
2022/04/19 08:37:09;;;;;;;10.67;8.20;;;14.00;83.40;;;;;;5030696;28;20432;-43
2022/04/19 08:39:36;;;;;;;8.80;7.73;;;14.00;85.10;;;;;;5030134;28;20429;-43
2022/04/19 08:42:02;;;;;;;8.27;7.13;;;14.10;86.90;;;;;;5030789;28;20465;-43
2022/04/19 08:44:28;;;;;;;8.80;7.47;;;14.10;84.10;;;;;;5022367;28;20434;-43
2022/04/19 08:46:57;;;;;;;8.77;7.97;;;14.10;85.20;;;;;;5027918;28;20444;-43
2022/04/19 08:49:24;;;;;;;8.30;7.50;;;14.20;84.70;;;;;;5025224;28;20182;-43
2022/04/19 08:51:50;;;;;;;8.00;7.20;;;14.20;84.30;;;;;;5030178;28;20461;-43
2022/04/19 08:59:44;;;;;;;7.90;7.10;;;14.50;83.30;;;;;;5020729;28;20444;-43
2022/04/19 09:02:24;;;;;;;8.77;6.70;;;14.70;84.00;;;;;;5029867;28;20477;-43
2022/04/19 09:04:54;;;;;;;7.47;6.77;;;14.80;82.60;;;;;;5027657;28;20194;-43
2022/04/19 09:07:20;;;;;;;7.50;6.73;;;14.80;81.00;;;;;;5030441;28;20425;-43
2022/04/19 09:09:59;;;;;;;7.37;6.67;;;15.00;82.40;;;;;;5029589;28;20456;-43
2022/04/19 09:12:26;;;;;;;6.90;5.73;;;15.00;80.80;;;;;;5030458;28;20503;-43
2022/04/19 09:15:08;;;;;;;7.23;6.53;;;15.20;79.60;;;;;;5020654;28;20828;-43
2022/04/19 09:17:40;;;;;;;9.00;5.80;;;15.30;80.30;;;;;;5028683;28;20464;-43
2022/04/19 09:20:09;;;;;;;6.53;5.83;;;15.40;80.30;;;;;;5029061;28;20444;-43
2022/04/19 09:22:37;;;;;;;6.50;5.90;;;15.60;79.60;;;;;;5030017;28;20584;-43
2022/04/19 09:25:24;;;;;;;7.00;5.93;;;15.60;77.50;;;;;;5035870;28;20486;-43
2022/04/19 09:27:52;;;;;;;6.60;5.73;;;15.80;80.10;;;;;;5049843;28;20455;-43
2022/04/19 09:30:23;;;;;;;5.27;4.60;;;15.90;77.50;;;;;;5027835;28;20439;-43
2022/04/19 09:33:08;;;;;;;5.97;5.37;;;16.00;78.90;;;;;;5029618;28;20425;-42
2022/04/19 09:35:39;;;;;;;6.03;5.37;;;16.10;80.10;;;;;;5029672;28;20460;-41
2022/04/19 09:38:07;;;;;;;7.60;5.20;;;16.30;78.80;;;;;;5029681;28;20425;-43
2022/04/19 09:40:38;;;;;;;6.73;5.33;;;16.50;75.10;;;;;;5029076;28;20516;-43
2022/04/19 09:43:12;;;;;;;9.87;5.80;;;16.70;75.30;;;;;;5027852;28;20429;-43
2022/04/19 09:45:50;;;;;;;5.10;4.40;;;16.70;75.90;;;;;;5016745;28;21227;-43
2022/04/19 09:48:17;;;;;;;6.10;4.80;;;16.70;73.80;;;;;;5028899;28;20451;-43
2022/04/19 09:50:51;;;;;;;7.00;5.40;;;16.80;74.40;;;;;;5028923;28;20448;-43
2022/04/19 09:53:22;;;;;;;5.73;4.80;;;16.90;74.30;;;;;;5029521;28;20937;-43
2022/04/19 09:55:49;;;;;;;5.77;5.17;;;17.00;75.20;;;;;;5029647;28;20425;-43
2022/04/19 09:58:16;;;;;;;4.93;4.43;;;17.20;75.00;;;;;;5028010;28;20459;-43
2022/04/19 10:00:44;;;;;;;6.17;5.00;;;17.20;74.00;;;;;;5012559;28;20466;-43
2022/04/19 10:08:57;;;;;;;6.43;5.10;;;17.50;70.40;;;;;;5024291;28;20936;-43
2022/04/19 10:11:26;;;;;;;5.90;4.70;;;17.50;68.40;;;;;;5023661;28;20437;-43
2022/04/19 10:13:54;;;;;;;5.80;5.20;;;17.60;68.90;;;;;;5029262;28;20556;-43
2022/04/19 10:16:21;;;;;;;5.70;5.10;;;17.70;68.10;;;;;;5016007;28;20449;-43
2022/04/19 10:18:46;;;;;;;5.27;4.77;;;17.70;71.40;;;;;;5029183;28;20444;-43
2022/04/19 10:21:19;;;;;;;6.87;4.40;;;17.70;71.20;;;;;;5028445;28;20480;-43
2022/04/19 10:23:46;;;;;;;6.00;4.43;;;17.70;67.20;;;;;;5029100;28;20186;-43
2022/04/19 10:26:17;;;;;;;6.90;5.10;;;17.80;66.90;;;;;;5045420;28;20424;-43
2022/04/19 10:28:45;;;;;;;6.60;4.80;;;17.90;67.50;;;;;;5048970;28;20992;-43
2022/04/19 10:31:12;;;;;;;6.20;4.77;;;17.90;66.40;;;;;;5017894;28;20437;-43
2022/04/19 10:33:52;;;;;;;5.83;5.07;;;18.00;67.20;;;;;;5029109;28;20464;-43
2022/04/19 10:36:21;;;;;;;9.37;6.30;;;18.10;67.20;;;;;;5029046;28;20908;-43
2022/04/19 10:39:13;;;;;;;5.63;5.03;;;18.00;69.80;;;;;;5029043;28;20848;-43
2022/04/19 10:41:59;;;;;;;7.70;5.77;;;18.00;70.40;;;;;;5018532;28;20480;-43
2022/04/19 10:44:34;;;;;;;7.30;6.23;;;18.20;67.30;;;;;;5024857;28;20439;-43
2022/04/19 10:47:08;;;;;;;8.07;5.13;;;18.20;70.20;;;;;;5026132;28;20425;-43
2022/04/19 10:50:04;;;;;;;7.27;5.53;;;18.20;69.00;;;;;;5028419;28;20432;-43
2022/04/19 10:52:36;;;;;;;6.70;5.50;;;18.20;68.50;;;;;;5028969;28;21070;-43
2022/04/19 10:55:18;;;;;;;8.57;5.60;;;18.30;69.40;;;;;;5028821;28;20421;-43
2022/04/19 10:58:08;;;;;;;7.17;6.00;;;18.30;68.00;;;;;;5028975;28;20453;-43
2022/04/19 11:00:36;;;;;;;6.23;4.97;;;18.40;67.80;;;;;;5020680;28;20446;-43
2022/04/19 11:03:03;;;;;;;7.03;6.10;;;18.60;69.50;;;;;;5029820;28;20440;-43
2022/04/19 11:05:43;;;;;;;8.57;5.70;;;18.70;69.90;;;;;;5031112;28;20428;-43
2022/04/19 11:08:24;;;;;;;6.73;5.63;;;18.80;65.00;;;;;;5032821;28;20428;-43
2022/04/19 11:10:57;;;;;;;6.80;4.90;;;18.90;65.30;;;;;;5031857;28;20437;-43
2022/04/19 11:13:26;;;;;;;6.80;6.10;;;18.90;63.60;;;;;;5032658;28;20567;-43
2022/04/19 11:16:13;;;;;;;6.70;4.60;;;18.90;65.60;;;;;;5022010;28;20805;-43
2022/04/19 11:18:39;;;;;;;7.30;5.60;;;18.80;64.40;;;;;;5030227;28;20532;-43
2022/04/19 11:21:13;;;;;;;7.73;5.73;;;18.80;62.40;;;;;;5031722;28;20587;-44
2022/04/19 11:23:49;;;;;;;7.13;6.33;;;18.80;62.80;;;;;;5032373;28;20183;-43
2022/04/19 11:26:30;;;;;;;7.60;4.97;;;18.80;64.70;;;;;;5046467;28;20427;-43
2022/04/19 11:29:11;;;;;;;7.07;4.93;;;18.70;64.30;;;;;;5052396;28;20426;-43
2022/04/19 11:31:43;;;;;;;5.83;4.43;;;18.60;62.90;;;;;;5023459;28;20460;-44
2022/04/19 11:34:13;;;;;;;6.30;4.13;;;18.60;62.40;;;;;;5032098;28;20423;-43
2022/04/19 11:36:38;;;;;;;5.90;4.83;;;18.60;59.10;;;;;;5032210;28;20451;-43
2022/04/19 11:39:05;;;;;;;5.40;4.53;;;18.60;59.20;;;;;;5031883;28;20424;-43
2022/04/19 11:47:02;;;;;;;6.67;4.80;;;18.80;64.50;;;;;;5025040;28;20528;-43
2022/04/19 11:49:38;;;;;;;9.83;5.80;;;18.90;63.90;;;;;;5031117;28;21023;-43
2022/04/19 11:52:13;;;;;;;6.40;4.87;;;18.90;66.00;;;;;;5031016;28;20579;-43
2022/04/19 11:54:39;;;;;;;6.97;5.23;;;19.00;67.60;;;;;;5030293;28;20432;-43
2022/04/19 11:57:10;;;;;;;5.57;5.00;;;19.00;60.60;;;;;;5028750;28;20999;-43
2022/04/19 11:59:45;;;;;;;9.33;5.20;;;18.90;60.50;;;;;;5028319;28;20437;-43
2022/04/19 12:02:20;;;;;;;7.80;5.17;;;18.90;64.00;;;;;;5021850;28;20484;-43
2022/04/19 12:04:57;;;;;;;7.13;5.17;;;19.00;66.60;;;;;;5028138;28;20436;-43
2022/04/19 12:07:27;;;;;;;7.30;5.50;;;18.90;65.60;;;;;;5018306;28;21035;-44
2022/04/19 12:09:53;;;;;;;6.17;5.10;;;19.00;65.10;;;;;;5028991;28;20424;-43
2022/04/19 12:12:20;;;;;;;6.67;5.40;;;19.00;65.30;;;;;;5028721;28;21082;-43
2022/04/19 12:14:52;;;;;;;6.43;4.80;;;18.90;65.80;;;;;;5029359;28;20807;-43
2022/04/19 12:17:22;;;;;;;9.20;5.80;;;19.10;65.80;;;;;;5019097;28;20969;-43
2022/04/19 12:19:59;;;;;;;5.70;5.10;;;19.20;65.60;;;;;;5028459;28;20797;-43
2022/04/19 12:22:25;;;;;;;7.50;6.17;;;19.30;63.20;;;;;;5029605;28;20468;-43
2022/04/19 12:24:58;;;;;;;6.13;5.53;;;19.20;66.70;;;;;;5032486;28;20501;-43
2022/04/19 12:27:32;;;;;;;9.20;6.00;;;19.30;64.90;;;;;;5048287;28;20542;-43
2022/04/19 12:30:02;;;;;;;6.57;5.97;;;19.30;68.40;;;;;;5048732;28;20420;-43
2022/04/19 12:32:51;;;;;;;7.10;5.67;;;19.40;65.40;;;;;;5017188;28;20848;-43
2022/04/19 12:35:17;;;;;;;8.27;6.33;;;19.30;63.50;;;;;;5024729;28;20460;-43
2022/04/19 12:37:43;;;;;;;6.60;5.60;;;19.00;64.20;;;;;;5045212;28;20570;-41
2022/04/19 12:40:10;;;;;;;5.57;5.03;;;19.00;68.00;;;;;;5043847;28;20440;-41
2022/04/19 12:42:49;;;;;;;9.77;7.17;;;19.10;69.00;;;;;;5048910;28;20475;-42
2022/04/19 12:45:15;;;;;;;7.97;6.90;;;19.20;67.20;;;;;;5046249;28;20810;-41
2022/04/19 12:47:50;;;;;;;7.37;6.63;;;19.20;66.50;;;;;;5021489;28;20421;-41
2022/04/19 12:50:19;;;;;;;5.70;5.20;;;19.20;67.40;;;;;;5020832;28;20421;-43
2022/04/19 12:52:47;;;;;;;8.10;6.30;;;19.20;67.40;;;;;;5028696;28;20457;-43
2022/04/19 12:55:14;;;;;;;6.93;6.00;;;19.30;65.70;;;;;;5029525;28;20799;-43
2022/04/19 12:57:42;;;;;;;6.20;5.60;;;19.30;67.80;;;;;;5028641;28;20452;-43
2022/04/19 13:00:11;;;;;;;6.73;5.70;;;19.30;66.80;;;;;;5028387;28;20444;-43
2022/04/19 13:02:42;;;;;;;8.27;6.27;;;19.40;69.60;;;;;;5019215;28;21049;-43
2022/04/19 13:05:08;;;;;;;7.93;6.23;;;19.40;67.30;;;;;;5027086;28;20864;-43
2022/04/19 13:13:05;;;;;;;6.60;6.00;;;19.50;68.90;;;;;;5028477;28;20436;-44
2022/04/19 13:15:32;;;;;;;6.33;5.70;;;19.50;67.60;;;;;;5026235;28;20890;-43
2022/04/19 13:17:58;;;;;;;8.40;5.90;;;19.40;67.00;;;;;;5021749;28;20829;-43
2022/04/19 13:20:24;;;;;;;5.23;4.70;;;19.40;67.40;;;;;;5027594;28;20417;-43
2022/04/19 13:22:50;;;;;;;5.97;5.37;;;19.40;65.40;;;;;;5028509;28;20479;-43
2022/04/19 13:25:16;;;;;;;6.90;5.90;;;19.40;65.40;;;;;;5030583;28;20189;-43
2022/04/19 13:27:42;;;;;;;6.80;5.33;;;19.40;66.30;;;;;;5048804;28;20228;-43
2022/04/19 13:30:13;;;;;;;5.73;5.13;;;19.50;67.00;;;;;;5047315;28;21193;-43
2022/04/19 13:32:40;;;;;;;6.63;5.17;;;19.50;64.00;;;;;;5019368;28;20186;-43
2022/04/19 13:35:07;;;;;;;6.13;5.17;;;19.40;65.50;;;;;;5027854;28;20924;-43
2022/04/19 13:40:18;;;;;;;6.90;4.70;;;19.30;63.70;;;;;;5027311;28;20429;-43